createdAt,value
2023-04-09T00:00:14.088Z,441.00
2023-04-09T00:01:14.126Z,441.00
2023-04-09T00:02:14.181Z,440.00
2023-04-09T00:03:14.221Z,440.00
2023-04-09T00:04:14.254Z,439.00
2023-04-09T00:05:14.273Z,439.00
2023-04-09T00:06:14.319Z,438.00
2023-04-09T00:07:14.343Z,439.00
2023-04-09T00:08:14.408Z,436.00
2023-04-09T00:09:14.461Z,436.00
2023-04-09T00:10:14.525Z,437.00
2023-04-09T00:11:14.520Z,438.00
2023-04-09T00:12:14.549Z,437.00
2023-04-09T00:13:15.882Z,435.00
2023-04-09T00:14:14.624Z,437.00
2023-04-09T00:15:27.930Z,437.00
2023-04-09T00:16:15.700Z,438.00
2023-04-09T00:17:14.634Z,437.00
2023-04-09T00:18:14.636Z,436.00
2023-04-09T00:19:14.637Z,436.00
2023-04-09T00:20:14.678Z,436.00
2023-04-09T00:21:14.632Z,437.00
2023-04-09T00:22:14.635Z,437.00
2023-04-09T00:23:14.623Z,438.00
2023-04-09T00:24:14.575Z,439.00
2023-04-09T00:25:14.588Z,439.00
2023-04-09T00:26:14.587Z,438.00
2023-04-09T00:27:14.602Z,437.00
2023-04-09T00:28:14.616Z,438.00
2023-04-09T00:29:14.706Z,438.00
2023-04-09T00:30:14.749Z,435.00
2023-04-09T00:31:14.762Z,437.00
2023-04-09T00:32:14.793Z,438.00
2023-04-09T00:33:14.824Z,438.00
2023-04-09T00:34:14.890Z,437.00
2023-04-09T00:35:14.929Z,437.00
2023-04-09T00:36:14.998Z,437.00
2023-04-09T00:37:15.010Z,437.00
2023-04-09T00:38:15.033Z,436.00
2023-04-09T00:39:15.115Z,434.00
2023-04-09T00:40:15.139Z,434.00
2023-04-09T00:41:15.169Z,435.00
2023-04-09T00:42:15.214Z,435.00
2023-04-09T00:43:15.265Z,434.00
2023-04-09T00:44:15.337Z,435.00
2023-04-09T00:45:15.357Z,437.00
2023-04-09T00:46:15.512Z,437.00
2023-04-09T00:47:15.448Z,440.00
2023-04-09T00:48:15.487Z,437.00
2023-04-09T00:49:15.533Z,435.00
2023-04-09T00:50:15.574Z,434.00
2023-04-09T00:51:15.629Z,432.00
2023-04-09T00:52:15.690Z,433.00
2023-04-09T00:53:15.704Z,435.00
2023-04-09T00:54:15.777Z,435.00
2023-04-09T00:55:15.796Z,436.00
2023-04-09T00:56:15.810Z,438.00
2023-04-09T00:57:15.858Z,439.00
2023-04-09T00:58:15.900Z,439.00
2023-04-09T00:59:15.985Z,441.00
2023-04-09T01:00:16.008Z,438.00
2023-04-09T01:01:16.052Z,438.00
2023-04-09T01:02:16.165Z,439.00
2023-04-09T01:03:16.132Z,440.00
2023-04-09T01:04:16.153Z,439.00
2023-04-09T01:05:16.210Z,437.00
2023-04-09T01:06:16.275Z,439.00
2023-04-09T01:07:16.277Z,439.00
2023-04-09T01:08:16.347Z,439.00
2023-04-09T01:09:16.387Z,441.00
2023-04-09T01:10:16.409Z,440.00
2023-04-09T01:11:16.499Z,438.00
2023-04-09T01:12:16.526Z,439.00
2023-04-09T01:13:16.568Z,437.00
2023-04-09T01:14:16.617Z,437.00
2023-04-09T01:15:16.650Z,437.00
2023-04-09T01:16:16.710Z,438.00
2023-04-09T01:17:16.707Z,439.00
2023-04-09T01:18:16.780Z,442.00
2023-04-09T01:19:16.821Z,443.00
2023-04-09T01:20:16.858Z,442.00
2023-04-09T01:21:16.898Z,443.00
2023-04-09T01:22:16.943Z,440.00
2023-04-09T01:23:16.964Z,437.00
2023-04-09T01:24:17.058Z,435.00
2023-04-09T01:25:17.145Z,435.00
2023-04-09T01:26:17.147Z,437.00
2023-04-09T01:27:17.148Z,439.00
2023-04-09T01:28:17.219Z,440.00
2023-04-09T01:29:17.256Z,441.00
2023-04-09T01:30:17.284Z,440.00
2023-04-09T01:31:17.337Z,440.00
2023-04-09T01:32:17.351Z,439.00
2023-04-09T01:33:17.364Z,441.00
2023-04-09T01:34:17.438Z,442.00
2023-04-09T01:35:17.448Z,440.00
2023-04-09T01:36:17.486Z,441.00
2023-04-09T01:37:17.525Z,440.00
2023-04-09T01:38:17.587Z,442.00
2023-04-09T01:39:17.619Z,442.00
2023-04-09T01:40:17.666Z,442.00
2023-04-09T01:41:17.684Z,444.00
2023-04-09T01:42:17.755Z,447.00
2023-04-09T01:43:17.741Z,445.00
2023-04-09T01:44:17.792Z,445.00
2023-04-09T01:45:17.852Z,447.00
2023-04-09T01:46:17.925Z,449.00
2023-04-09T01:47:17.920Z,450.00
2023-04-09T01:48:17.977Z,450.00
2023-04-09T01:49:18.026Z,447.00
2023-04-09T01:50:18.049Z,446.00
2023-04-09T01:51:18.095Z,444.00
2023-04-09T01:52:18.173Z,442.00
2023-04-09T01:53:18.209Z,442.00
2023-04-09T01:54:18.259Z,445.00
2023-04-09T01:55:18.277Z,446.00
2023-04-09T01:56:18.359Z,447.00
2023-04-09T01:57:18.398Z,444.00
2023-04-09T01:58:18.428Z,442.00
2023-04-09T01:59:18.459Z,444.00
2023-04-09T02:00:18.525Z,443.00
2023-04-09T02:01:18.609Z,440.00
2023-04-09T02:02:18.770Z,439.00
2023-04-09T02:03:18.753Z,440.00
2023-04-09T02:04:18.712Z,441.00
2023-04-09T02:05:18.730Z,440.00
2023-04-09T02:06:18.773Z,443.00
2023-04-09T02:07:18.861Z,444.00
2023-04-09T02:08:18.876Z,443.00
2023-04-09T02:09:18.933Z,443.00
2023-04-09T02:10:19.003Z,443.00
2023-04-09T02:11:19.013Z,443.00
2023-04-09T02:12:19.084Z,445.00
2023-04-09T02:13:19.143Z,447.00
2023-04-09T02:14:19.169Z,446.00
2023-04-09T02:15:19.195Z,449.00
2023-04-09T02:16:19.334Z,448.00
2023-04-09T02:17:19.289Z,448.00
2023-04-09T02:18:19.310Z,446.00
2023-04-09T02:19:19.375Z,444.00
2023-04-09T02:20:19.380Z,445.00
2023-04-09T02:21:19.418Z,446.00
2023-04-09T02:22:19.478Z,445.00
2023-04-09T02:23:19.489Z,444.00
2023-04-09T02:24:19.556Z,443.00
2023-04-09T02:25:19.597Z,442.00
2023-04-09T02:26:19.634Z,441.00
2023-04-09T02:27:19.668Z,438.00
2023-04-09T02:28:19.751Z,438.00
2023-04-09T02:29:19.792Z,439.00
2023-04-09T02:30:19.822Z,441.00
2023-04-09T02:31:19.922Z,443.00
2023-04-09T02:32:19.918Z,443.00
2023-04-09T02:33:19.953Z,444.00
2023-04-09T02:34:20.021Z,443.00
2023-04-09T02:35:20.062Z,441.00
2023-04-09T02:36:20.085Z,440.00
2023-04-09T02:37:20.098Z,441.00
2023-04-09T02:38:20.171Z,442.00
2023-04-09T02:39:20.229Z,441.00
2023-04-09T02:40:20.261Z,441.00
2023-04-09T02:41:20.306Z,440.00
2023-04-09T02:42:20.359Z,440.00
2023-04-09T02:43:20.404Z,441.00
2023-04-09T02:44:20.436Z,442.00
2023-04-09T02:45:20.486Z,441.00
2023-04-09T02:46:20.575Z,442.00
2023-04-09T02:47:20.545Z,442.00
2023-04-09T02:48:20.678Z,443.00
2023-04-09T02:49:20.628Z,444.00
2023-04-09T02:50:20.692Z,445.00
2023-04-09T02:51:20.733Z,443.00
2023-04-09T02:52:20.772Z,443.00
2023-04-09T02:53:20.829Z,442.00
2023-04-09T02:54:20.838Z,444.00
2023-04-09T02:55:20.920Z,440.00
2023-04-09T02:56:20.924Z,442.00
2023-04-09T02:57:21.005Z,440.00
2023-04-09T02:58:21.078Z,437.00
2023-04-09T02:59:21.081Z,438.00
2023-04-09T03:00:21.182Z,435.00
2023-04-09T03:01:21.264Z,435.00
2023-04-09T03:02:21.439Z,436.00
2023-04-09T03:03:21.474Z,434.00
2023-04-09T03:04:21.348Z,435.00
2023-04-09T03:05:21.382Z,435.00
2023-04-09T03:06:21.403Z,435.00
2023-04-09T03:07:21.466Z,437.00
2023-04-09T03:08:21.542Z,436.00
2023-04-09T03:09:21.555Z,438.00
2023-04-09T03:10:21.610Z,440.00
2023-04-09T03:11:21.680Z,441.00
2023-04-09T03:12:21.733Z,441.00
2023-04-09T03:13:21.761Z,443.00
2023-04-09T03:14:21.796Z,445.00
2023-04-09T03:15:21.874Z,444.00
2023-04-09T03:16:21.946Z,443.00
2023-04-09T03:17:21.950Z,443.00
2023-04-09T03:18:21.998Z,441.00
2023-04-09T03:19:22.037Z,442.00
2023-04-09T03:20:22.068Z,442.00
2023-04-09T03:21:22.120Z,442.00
2023-04-09T03:22:22.177Z,443.00
2023-04-09T03:23:22.202Z,443.00
2023-04-09T03:24:22.227Z,444.00
2023-04-09T03:25:22.288Z,442.00
2023-04-09T03:26:22.319Z,443.00
2023-04-09T03:27:22.350Z,443.00
2023-04-09T03:28:22.419Z,443.00
2023-04-09T03:29:22.447Z,443.00
2023-04-09T03:30:22.488Z,445.00
2023-04-09T03:31:22.595Z,443.00
2023-04-09T03:32:22.585Z,442.00
2023-04-09T03:33:23.190Z,442.00
2023-04-09T03:34:22.684Z,443.00
2023-04-09T03:35:22.704Z,446.00
2023-04-09T03:36:22.756Z,444.00
2023-04-09T03:37:22.785Z,445.00
2023-04-09T03:38:22.847Z,442.00
2023-04-09T03:39:22.911Z,445.00
2023-04-09T03:40:22.934Z,446.00
2023-04-09T03:41:23.008Z,446.00
2023-04-09T03:42:23.021Z,448.00
2023-04-09T03:43:23.115Z,448.00
2023-04-09T03:44:23.150Z,448.00
2023-04-09T03:45:23.215Z,446.00
2023-04-09T03:46:23.303Z,445.00
2023-04-09T03:47:23.303Z,446.00
2023-04-09T03:48:23.377Z,445.00
2023-04-09T03:49:23.398Z,444.00
2023-04-09T03:50:23.460Z,441.00
2023-04-09T03:51:23.531Z,441.00
2023-04-09T03:52:23.560Z,441.00
2023-04-09T03:53:23.610Z,442.00
2023-04-09T03:54:23.693Z,443.00
2023-04-09T03:55:23.710Z,443.00
2023-04-09T03:56:23.775Z,445.00
2023-04-09T03:57:23.830Z,444.00
2023-04-09T03:58:23.843Z,444.00
2023-04-09T03:59:23.977Z,443.00
2023-04-09T04:00:23.981Z,444.00
2023-04-09T04:01:24.014Z,443.00
2023-04-09T04:02:24.174Z,444.00
2023-04-09T04:03:24.185Z,444.00
2023-04-09T04:04:24.267Z,443.00
2023-04-09T04:05:24.199Z,442.00
2023-04-09T04:06:24.242Z,440.00
2023-04-09T04:07:24.295Z,440.00
2023-04-09T04:08:24.344Z,441.00
2023-04-09T04:09:24.384Z,440.00
2023-04-09T04:10:24.462Z,440.00
2023-04-09T04:11:24.490Z,438.00
2023-04-09T04:12:24.548Z,440.00
2023-04-09T04:13:24.636Z,439.00
2023-04-09T04:14:24.645Z,438.00
2023-04-09T04:15:24.693Z,438.00
2023-04-09T04:16:24.812Z,437.00
2023-04-09T04:17:24.825Z,438.00
2023-04-09T04:18:24.835Z,439.00
2023-04-09T04:19:24.913Z,440.00
2023-04-09T04:20:24.923Z,441.00
2023-04-09T04:21:24.967Z,440.00
2023-04-09T04:22:26.193Z,442.00
2023-04-09T04:23:25.073Z,443.00
2023-04-09T04:24:25.161Z,445.00
2023-04-09T04:25:25.190Z,446.00
2023-04-09T04:26:25.247Z,447.00
2023-04-09T04:27:25.283Z,446.00
2023-04-09T04:28:25.371Z,445.00
2023-04-09T04:29:25.399Z,443.00
2023-04-09T04:30:25.441Z,443.00
2023-04-09T04:31:25.556Z,443.00
2023-04-09T04:32:25.563Z,442.00
2023-04-09T04:33:25.598Z,443.00
2023-04-09T04:34:25.663Z,444.00
2023-04-09T04:35:25.712Z,445.00
2023-04-09T04:36:25.727Z,443.00
2023-04-09T04:37:25.797Z,443.00
2023-04-09T04:38:25.841Z,444.00
2023-04-09T04:39:25.912Z,444.00
2023-04-09T04:40:25.952Z,443.00
2023-04-09T04:41:25.990Z,443.00
2023-04-09T04:42:26.034Z,442.00
2023-04-09T04:43:26.072Z,443.00
2023-04-09T04:44:26.158Z,444.00
2023-04-09T04:45:26.219Z,444.00
2023-04-09T04:46:26.221Z,443.00
2023-04-09T04:47:26.336Z,441.00
2023-04-09T04:48:26.348Z,441.00
2023-04-09T04:49:26.408Z,439.00
2023-04-09T04:50:26.480Z,439.00
2023-04-09T04:51:26.504Z,439.00
2023-04-09T04:52:26.562Z,439.00
2023-04-09T04:53:26.593Z,439.00
2023-04-09T04:54:26.688Z,441.00
2023-04-09T04:55:26.705Z,444.00
2023-04-09T04:56:26.782Z,445.00
2023-04-09T04:57:26.816Z,445.00
2023-04-09T04:58:26.878Z,443.00
2023-04-09T04:59:26.950Z,444.00
2023-04-09T05:00:26.966Z,446.00
2023-04-09T05:01:27.077Z,448.00
2023-04-09T05:02:27.178Z,449.00
2023-04-09T05:03:27.790Z,446.00
2023-04-09T05:04:27.162Z,443.00
2023-04-09T05:05:27.237Z,443.00
2023-04-09T05:06:28.189Z,441.00
2023-04-09T05:07:27.342Z,441.00
2023-04-09T05:08:27.368Z,440.00
2023-04-09T05:09:27.456Z,442.00
2023-04-09T05:10:27.485Z,441.00
2023-04-09T05:11:27.548Z,441.00
2023-04-09T05:12:27.567Z,439.00
2023-04-09T05:13:27.648Z,441.00
2023-04-09T05:14:27.694Z,441.00
2023-04-09T05:15:27.721Z,441.00
2023-04-09T05:16:27.823Z,444.00
2023-04-09T05:17:27.823Z,444.00
2023-04-09T05:18:27.840Z,444.00
2023-04-09T05:19:27.912Z,444.00
2023-04-09T05:20:27.960Z,443.00
2023-04-09T05:21:28.013Z,445.00
2023-04-09T05:22:28.081Z,443.00
2023-04-09T05:23:28.082Z,443.00
2023-04-09T05:24:28.189Z,444.00
2023-04-09T05:25:28.214Z,445.00
2023-04-09T05:26:28.239Z,447.00
2023-04-09T05:27:28.316Z,446.00
2023-04-09T05:28:28.343Z,445.00
2023-04-09T05:29:28.480Z,443.00
2023-04-09T05:30:28.505Z,442.00
2023-04-09T05:31:28.503Z,442.00
2023-04-09T05:32:28.578Z,442.00
2023-04-09T05:33:28.598Z,442.00
2023-04-09T05:34:28.734Z,439.00
2023-04-09T05:35:28.711Z,438.00
2023-04-09T05:36:28.744Z,437.00
2023-04-09T05:37:28.835Z,440.00
2023-04-09T05:38:28.857Z,439.00
2023-04-09T05:39:28.906Z,439.00
2023-04-09T05:40:28.940Z,441.00
2023-04-09T05:41:29.012Z,441.00
2023-04-09T05:42:29.161Z,442.00
2023-04-09T05:43:29.143Z,441.00
2023-04-09T05:44:29.149Z,439.00
2023-04-09T05:45:29.248Z,439.00
2023-04-09T05:46:29.305Z,441.00
2023-04-09T05:47:29.439Z,440.00
2023-04-09T05:48:29.383Z,443.00
2023-04-09T05:49:29.416Z,444.00
2023-04-09T05:50:29.490Z,444.00
2023-04-09T05:51:29.546Z,443.00
2023-04-09T05:52:29.573Z,445.00
2023-04-09T05:53:29.641Z,444.00
2023-04-09T05:54:29.657Z,444.00
2023-04-09T05:55:29.703Z,443.00
2023-04-09T05:56:29.748Z,443.00
2023-04-09T05:57:29.826Z,442.00
2023-04-09T05:58:29.855Z,442.00
2023-04-09T05:59:29.936Z,444.00
2023-04-09T06:00:30.038Z,444.00
2023-04-09T06:01:30.010Z,445.00
2023-04-09T06:02:30.137Z,443.00
2023-04-09T06:03:30.255Z,442.00
2023-04-09T06:04:30.251Z,443.00
2023-04-09T06:05:30.208Z,446.00
2023-04-09T06:06:30.260Z,445.00
2023-04-09T06:07:30.297Z,444.00
2023-04-09T06:08:30.359Z,444.00
2023-04-09T06:09:30.427Z,446.00
2023-04-09T06:10:30.437Z,448.00
2023-04-09T06:11:30.516Z,449.00
2023-04-09T06:12:30.556Z,450.00
2023-04-09T06:13:30.616Z,449.00
2023-04-09T06:14:30.664Z,449.00
2023-04-09T06:15:30.741Z,447.00
2023-04-09T06:16:30.716Z,447.00
2023-04-09T06:17:30.854Z,448.00
2023-04-09T06:18:30.845Z,449.00
2023-04-09T06:19:30.913Z,450.00
2023-04-09T06:20:30.937Z,448.00
2023-04-09T06:21:31.014Z,448.00
2023-04-09T06:22:31.055Z,448.00
2023-04-09T06:23:31.098Z,445.00
2023-04-09T06:24:31.152Z,446.00
2023-04-09T06:25:31.225Z,446.00
2023-04-09T06:26:31.242Z,445.00
2023-04-09T06:27:31.319Z,447.00
2023-04-09T06:28:31.367Z,445.00
2023-04-09T06:29:31.440Z,444.00
2023-04-09T06:30:31.474Z,445.00
2023-04-09T06:31:31.587Z,447.00
2023-04-09T06:32:35.493Z,450.00
2023-04-09T06:33:32.539Z,450.00
2023-04-09T06:34:31.579Z,451.00
2023-04-09T06:35:31.567Z,451.00
2023-04-09T06:36:31.538Z,451.00
2023-04-09T06:37:31.514Z,450.00
2023-04-09T06:38:31.529Z,450.00
2023-04-09T06:39:31.506Z,450.00
2023-04-09T06:40:31.513Z,448.00
2023-04-09T06:41:31.527Z,448.00
2023-04-09T06:42:31.500Z,445.00
2023-04-09T06:43:31.549Z,444.00
2023-04-09T06:44:31.594Z,444.00
2023-04-09T06:45:31.627Z,444.00
2023-04-09T06:46:31.735Z,444.00
2023-04-09T06:47:31.738Z,444.00
2023-04-09T06:48:31.799Z,446.00
2023-04-09T06:49:31.875Z,446.00
2023-04-09T06:50:31.881Z,447.00
2023-04-09T06:51:31.971Z,449.00
2023-04-09T06:52:32.014Z,451.00
2023-04-09T06:53:32.069Z,447.00
2023-04-09T06:54:32.126Z,447.00
2023-04-09T06:55:32.146Z,448.00
2023-04-09T06:56:32.200Z,449.00
2023-04-09T06:57:32.266Z,450.00
2023-04-09T06:58:32.291Z,450.00
2023-04-09T06:59:32.338Z,451.00
2023-04-09T07:00:32.419Z,451.00
2023-04-09T07:01:32.489Z,452.00
2023-04-09T07:02:32.676Z,449.00
2023-04-09T07:03:32.763Z,447.00
2023-04-09T07:04:32.604Z,448.00
2023-04-09T07:05:32.642Z,444.00
2023-04-09T07:06:32.674Z,444.00
2023-04-09T07:07:32.729Z,443.00
2023-04-09T07:08:32.781Z,446.00
2023-04-09T07:09:32.807Z,446.00
2023-04-09T07:10:32.910Z,445.00
2023-04-09T07:11:32.928Z,446.00
2023-04-09T07:12:32.966Z,445.00
2023-04-09T07:13:33.319Z,444.00
2023-04-09T07:14:33.068Z,442.00
2023-04-09T07:15:33.116Z,441.00
2023-04-09T07:16:33.298Z,440.00
2023-04-09T07:17:33.294Z,442.00
2023-04-09T07:18:33.260Z,443.00
2023-04-09T07:19:33.305Z,443.00
2023-04-09T07:20:33.340Z,443.00
2023-04-09T07:21:33.383Z,442.00
2023-04-09T07:22:33.430Z,443.00
2023-04-09T07:23:33.468Z,444.00
2023-04-09T07:24:33.706Z,445.00
2023-04-09T07:25:33.543Z,445.00
2023-04-09T07:26:33.583Z,443.00
2023-04-09T07:27:33.629Z,445.00
2023-04-09T07:28:33.690Z,448.00
2023-04-09T07:29:33.739Z,447.00
2023-04-09T07:30:33.772Z,448.00
2023-04-09T07:31:35.866Z,446.00
2023-04-09T07:32:33.938Z,445.00
2023-04-09T07:33:33.961Z,445.00
2023-04-09T07:34:33.981Z,444.00
2023-04-09T07:35:34.069Z,444.00
2023-04-09T07:36:34.094Z,447.00
2023-04-09T07:37:34.086Z,447.00
2023-04-09T07:38:34.190Z,448.00
2023-04-09T07:39:34.210Z,449.00
2023-04-09T07:40:34.245Z,447.00
2023-04-09T07:41:34.280Z,447.00
2023-04-09T07:42:34.329Z,448.00
2023-04-09T07:43:34.393Z,448.00
2023-04-09T07:44:34.425Z,449.00
2023-04-09T07:45:34.447Z,447.00
2023-04-09T07:46:34.540Z,448.00
2023-04-09T07:47:34.596Z,451.00
2023-04-09T07:48:34.617Z,449.00
2023-04-09T07:49:34.624Z,449.00
2023-04-09T07:50:34.690Z,450.00
2023-04-09T07:51:34.767Z,452.00
2023-04-09T07:52:34.774Z,451.00
2023-04-09T07:53:34.986Z,451.00
2023-04-09T07:54:34.871Z,448.00
2023-04-09T07:55:34.887Z,445.00
2023-04-09T07:56:34.976Z,444.00
2023-04-09T07:57:35.037Z,444.00
2023-04-09T07:58:35.074Z,445.00
2023-04-09T07:59:35.113Z,445.00
2023-04-09T08:00:35.128Z,447.00
2023-04-09T08:01:35.192Z,445.00
2023-04-09T08:02:35.343Z,446.00
2023-04-09T08:03:35.420Z,446.00
2023-04-09T08:04:35.510Z,446.00
2023-04-09T08:05:35.362Z,445.00
2023-04-09T08:06:35.377Z,445.00
2023-04-09T08:07:35.438Z,443.00
2023-04-09T08:08:35.473Z,443.00
2023-04-09T08:09:35.509Z,444.00
2023-04-09T08:10:35.521Z,446.00
2023-04-09T08:11:35.556Z,447.00
2023-04-09T08:12:35.605Z,447.00
2023-04-09T08:13:35.650Z,446.00
2023-04-09T08:14:35.672Z,444.00
2023-04-09T08:15:35.703Z,443.00
2023-04-09T08:16:35.771Z,442.00
2023-04-09T08:17:35.814Z,445.00
2023-04-09T08:18:35.816Z,444.00
2023-04-09T08:19:35.872Z,442.00
2023-04-09T08:20:35.887Z,442.00
2023-04-09T08:21:35.932Z,442.00
2023-04-09T08:22:35.980Z,442.00
2023-04-09T08:23:36.014Z,441.00
2023-04-09T08:24:36.085Z,440.00
2023-04-09T08:25:36.086Z,438.00
2023-04-09T08:26:36.114Z,440.00
2023-04-09T08:27:36.129Z,439.00
2023-04-09T08:28:36.168Z,438.00
2023-04-09T08:29:36.204Z,439.00
2023-04-09T08:30:36.252Z,440.00
2023-04-09T08:31:36.375Z,438.00
2023-04-09T08:32:36.388Z,438.00
2023-04-09T08:33:36.357Z,440.00
2023-04-09T08:34:36.482Z,443.00
2023-04-09T08:35:36.460Z,444.00
2023-04-09T08:36:36.491Z,445.00
2023-04-09T08:37:36.515Z,446.00
2023-04-09T08:38:36.543Z,446.00
2023-04-09T08:39:36.611Z,444.00
2023-04-09T08:40:36.652Z,446.00
2023-04-09T08:41:36.683Z,446.00
2023-04-09T08:42:36.726Z,446.00
2023-04-09T08:43:56.089Z,443.00
2023-04-09T08:44:37.753Z,445.00
2023-04-09T08:45:36.833Z,443.00
2023-04-09T08:46:36.746Z,445.00
2023-04-09T08:47:36.813Z,448.00
2023-04-09T08:48:36.757Z,447.00
2023-04-09T08:49:36.706Z,449.00
2023-04-09T08:50:36.695Z,447.00
2023-04-09T08:51:36.674Z,446.00
2023-04-09T08:52:36.698Z,448.00
2023-04-09T08:53:36.692Z,450.00
2023-04-09T08:54:36.742Z,450.00
2023-04-09T08:55:36.678Z,451.00
2023-04-09T08:56:36.642Z,454.00
2023-04-09T08:57:36.684Z,455.00
2023-04-09T08:58:36.727Z,456.00
2023-04-09T08:59:36.750Z,454.00
2023-04-09T09:00:36.799Z,453.00
2023-04-09T09:01:36.850Z,451.00
2023-04-09T09:02:36.950Z,450.00
2023-04-09T09:03:36.938Z,450.00
2023-04-09T09:04:36.909Z,451.00
2023-04-09T09:05:36.982Z,450.00
2023-04-09T09:06:36.996Z,449.00
2023-04-09T09:07:37.021Z,451.00
2023-04-09T09:09:48.909Z,449.00
2023-04-09T09:10:48.862Z,454.00
2023-04-09T09:11:48.857Z,456.00
2023-04-09T09:12:48.895Z,455.00
2023-04-09T09:13:48.841Z,454.00
2023-04-09T09:14:48.840Z,452.00
2023-04-09T09:15:48.810Z,451.00
2023-04-09T09:16:48.830Z,450.00
2023-04-09T09:17:48.802Z,448.00
2023-04-09T09:18:48.849Z,446.00
2023-04-09T09:19:48.800Z,442.00
2023-04-09T09:20:48.788Z,440.00
2023-04-09T09:21:48.795Z,442.00
2023-04-09T09:22:49.153Z,444.00
2023-04-09T09:23:49.798Z,446.00
2023-04-09T09:24:50.142Z,446.00
2023-04-09T09:25:48.766Z,450.00
2023-04-09T09:26:48.740Z,450.00
2023-04-09T09:27:48.747Z,449.00
2023-04-09T09:28:48.731Z,448.00
2023-04-09T09:29:48.738Z,447.00
2023-04-09T09:30:49.631Z,447.00
2023-04-09T09:31:48.751Z,446.00
2023-04-09T09:32:48.734Z,446.00
2023-04-09T09:33:48.718Z,444.00
2023-04-09T09:34:48.726Z,445.00
2023-04-09T09:35:48.732Z,447.00
2023-04-09T09:36:48.716Z,447.00
2023-04-09T09:37:48.711Z,448.00
2023-04-09T09:38:48.702Z,450.00
2023-04-09T09:39:48.702Z,450.00
2023-04-09T09:40:48.686Z,447.00
2023-04-09T09:41:48.687Z,446.00
2023-04-09T09:42:48.692Z,447.00
2023-04-09T09:43:48.628Z,450.00
2023-04-09T09:44:48.764Z,451.00
2023-04-09T09:45:48.667Z,447.00
2023-04-09T09:46:48.643Z,451.00
2023-04-09T09:47:48.679Z,449.00
2023-04-09T09:48:48.618Z,450.00
2023-04-09T09:49:48.622Z,449.00
2023-04-09T09:50:48.592Z,446.00
2023-04-09T09:51:48.619Z,447.00
2023-04-09T09:52:48.610Z,447.00
2023-04-09T09:53:49.909Z,446.00
2023-04-09T09:54:48.559Z,447.00
2023-04-09T09:55:48.565Z,448.00
2023-04-09T09:56:49.083Z,450.00
2023-04-09T09:57:48.567Z,451.00
2023-04-09T09:58:48.560Z,452.00
2023-04-09T09:59:48.548Z,454.00
2023-04-09T10:00:48.500Z,453.00
2023-04-09T10:01:48.650Z,453.00
2023-04-09T10:02:48.609Z,449.00
2023-04-09T10:03:48.517Z,447.00
2023-04-09T10:04:48.586Z,447.00
2023-04-09T10:05:48.483Z,446.00
2023-04-09T10:06:48.481Z,445.00
2023-04-09T10:07:48.514Z,444.00
2023-04-09T10:08:48.529Z,443.00
2023-04-09T10:09:48.504Z,446.00
2023-04-09T10:10:48.489Z,448.00
2023-04-09T10:11:48.492Z,448.00
2023-04-09T10:12:48.550Z,449.00
2023-04-09T10:13:48.494Z,451.00
2023-04-09T10:14:48.543Z,451.00
2023-04-09T10:15:48.526Z,452.00
2023-04-09T10:16:48.502Z,453.00
2023-04-09T10:17:48.592Z,453.00
2023-04-09T10:18:48.544Z,454.00
2023-04-09T10:19:48.521Z,456.00
2023-04-09T10:20:48.531Z,456.00
2023-04-09T10:21:48.521Z,455.00
2023-04-09T10:22:48.495Z,454.00
2023-04-09T10:23:48.499Z,452.00
2023-04-09T10:24:48.512Z,453.00
2023-04-09T10:25:48.510Z,453.00
2023-04-09T10:26:48.588Z,452.00
2023-04-09T10:27:48.527Z,452.00
2023-04-09T10:28:48.580Z,453.00
2023-04-09T10:29:48.630Z,453.00
2023-04-09T10:30:48.713Z,451.00
2023-04-09T10:31:49.598Z,451.00
2023-04-09T10:32:48.624Z,452.00
2023-04-09T10:33:48.569Z,452.00
2023-04-09T10:34:48.629Z,452.00
2023-04-09T10:35:48.672Z,450.00
2023-04-09T10:36:48.584Z,447.00
2023-04-09T10:37:48.570Z,445.00
2023-04-09T10:38:48.614Z,445.00
2023-04-09T10:39:48.599Z,444.00
2023-04-09T10:40:48.565Z,445.00
2023-04-09T10:41:48.594Z,444.00
2023-04-09T10:42:48.576Z,445.00
2023-04-09T10:43:48.575Z,444.00
2023-04-09T10:44:48.611Z,445.00
2023-04-09T10:45:48.607Z,445.00
2023-04-09T10:46:48.694Z,445.00
2023-04-09T10:47:48.733Z,446.00
2023-04-09T10:48:48.608Z,445.00
2023-04-09T10:49:48.671Z,443.00
2023-04-09T10:50:48.676Z,444.00
2023-04-09T10:51:48.704Z,443.00
2023-04-09T10:52:48.746Z,443.00
2023-04-09T10:53:48.709Z,444.00
2023-04-09T10:54:48.738Z,445.00
2023-04-09T10:55:48.770Z,447.00
2023-04-09T10:56:49.601Z,447.00
2023-04-09T10:57:48.794Z,448.00
2023-04-09T10:58:48.790Z,447.00
2023-04-09T10:59:48.866Z,446.00
2023-04-09T11:00:48.831Z,443.00
2023-04-09T11:01:48.890Z,442.00
2023-04-09T11:02:49.045Z,441.00
2023-04-09T11:03:48.889Z,442.00
2023-04-09T11:04:48.979Z,442.00
2023-04-09T11:05:48.918Z,442.00
2023-04-09T11:06:48.928Z,439.00
2023-04-09T11:07:48.950Z,438.00
2023-04-09T11:08:49.007Z,439.00
2023-04-09T11:09:49.010Z,440.00
2023-04-09T11:10:51.751Z,438.00
2023-04-09T11:11:49.051Z,438.00
2023-04-09T11:12:49.023Z,437.00
2023-04-09T11:13:49.047Z,435.00
2023-04-09T11:14:49.058Z,433.00
2023-04-09T11:15:49.052Z,432.00
2023-04-09T11:16:49.059Z,431.00
2023-04-09T11:17:49.074Z,432.00
2023-04-09T11:18:49.023Z,435.00
2023-04-09T11:19:48.990Z,436.00
2023-04-09T11:20:48.974Z,438.00
2023-04-09T11:21:49.005Z,439.00
2023-04-09T11:22:48.960Z,439.00
2023-04-09T11:23:48.949Z,441.00
2023-04-09T11:24:48.962Z,440.00
2023-04-09T11:25:48.972Z,439.00
2023-04-09T11:26:48.955Z,441.00
2023-04-09T11:27:48.914Z,440.00
2023-04-09T11:28:48.948Z,438.00
2023-04-09T11:29:48.957Z,437.00
2023-04-09T11:30:48.909Z,437.00
2023-04-09T11:31:48.971Z,437.00
2023-04-09T11:32:49.684Z,436.00
2023-04-09T11:33:48.907Z,437.00
2023-04-09T11:34:48.889Z,436.00
2023-04-09T11:35:49.037Z,438.00
2023-04-09T11:36:48.864Z,439.00
2023-04-09T11:37:48.885Z,440.00
2023-04-09T11:38:48.853Z,441.00
2023-04-09T11:39:48.867Z,444.00
2023-04-09T11:40:49.257Z,444.00
2023-04-09T11:41:48.877Z,446.00
2023-04-09T11:42:48.867Z,447.00
2023-04-09T11:43:48.845Z,448.00
2023-04-09T11:44:48.809Z,448.00
2023-04-09T11:45:48.992Z,447.00
2023-04-09T11:46:48.880Z,446.00
2023-04-09T11:47:48.835Z,444.00
2023-04-09T11:48:48.787Z,443.00
2023-04-09T11:49:48.798Z,444.00
2023-04-09T11:50:48.851Z,445.00
2023-04-09T11:51:48.884Z,444.00
2023-04-09T11:52:48.956Z,445.00
2023-04-09T11:53:48.989Z,444.00
2023-04-09T11:54:49.083Z,443.00
2023-04-09T11:55:49.121Z,443.00
2023-04-09T11:56:49.184Z,445.00
2023-04-09T11:57:49.217Z,445.00
2023-04-09T11:58:49.293Z,445.00
2023-04-09T11:59:49.346Z,445.00
2023-04-09T12:00:49.431Z,441.00
2023-04-09T12:01:49.523Z,440.00
2023-04-09T12:02:49.755Z,441.00
2023-04-09T12:03:49.832Z,442.00
2023-04-09T12:04:49.832Z,444.00
2023-04-09T12:05:51.212Z,443.00
2023-04-09T12:06:49.802Z,444.00
2023-04-09T12:07:56.437Z,445.00
2023-04-09T12:08:51.161Z,446.00
2023-04-09T12:09:49.868Z,446.00
2023-04-09T12:10:51.393Z,445.00
2023-04-09T12:11:49.827Z,446.00
2023-04-09T12:12:49.816Z,447.00
2023-04-09T12:13:49.842Z,449.00
2023-04-09T12:14:49.798Z,449.00
2023-04-09T12:15:49.971Z,449.00
2023-04-09T12:16:49.804Z,448.00
2023-04-09T12:17:49.825Z,449.00
2023-04-09T12:18:49.777Z,446.00
2023-04-09T12:19:49.785Z,446.00
2023-04-09T12:20:49.795Z,448.00
2023-04-09T12:21:49.757Z,447.00
2023-04-09T12:22:49.765Z,448.00
2023-04-09T12:23:49.739Z,450.00
2023-04-09T12:24:49.755Z,450.00
2023-04-09T12:25:49.726Z,449.00
2023-04-09T12:26:49.702Z,449.00
2023-04-09T12:27:49.746Z,447.00
2023-04-09T12:28:49.724Z,449.00
2023-04-09T12:29:49.747Z,446.00